Welcome to our Virtual Airline
Sign-in:

Flight MFC51101

  • Submitted By: James Smith
  • Departure Airport: Minchumina (PAMH)
  • Arrival Airport: Summit (UMM)
  • Aircraft: ()
  • Flight Time: 01.03.24
  • Date Submitted: 19/06/01
  • Route: STOP-OVER AT 1. STAMPEDE (Z90), 2. HEALY RIVER (PAHV-HRR), 3. DENALI (AK06)
  • Status: Accepted
Flight Details
Gross Revenue:
(3 load / $ 128.00 per unit
$ 384.00
Fuel Cost:
(139.253 fuel used @ 5.1 / unit)
$ 710.19

Additional Log Information:

View Log

FS[08:06] ----- Flight Opened -----
FS[08:06] Cigar Box - 1.1.4.0
FS[08:06] FS: Prepar3D V4
FS[08:06] FSUIPC: v5.151
FS[08:06] Flight Number: MFC51101
FS[08:06] FS Aircraft: Cessna T-50 Bobcat Milviz
FS[08:06] FS Model: T50
FS[08:06] FS Type: T50
FS[08:06] Departure: PAMH
FS[08:06] Arrival: UMM
FS[08:06] Flight Level: 7500
FS[08:06] Flight Type: H
FS[08:06] Passengers: 3
FS[08:06] FOB: 450 lbs
FS[08:06] Gate: 1 - PAMH
FS[08:06] NOTE: Parking Brake Ignored
FS[08:06] Crash Detection: Disabled
FS[08:06] Engines: 2 Piston
FS[08:06] NOTE: Boarding has started
FS[08:06] Parking Brake: Engaged
FS[08:06] Light Data: Navigation ON
FS[08:06] Light Data: Beacon ON
FS[08:06] Light Data: Strobe lights ON
FS[08:06] Main Door Closed
FS[08:06] COM1: 122.90
FS[08:06] COM2: 127.80
FS[08:06] Transponder: 1200
FS[08:06] NAV1: 113.70
FS[08:06] NAV2: 110.60
FS[08:06] ADF1: 284.0
FS[08:06] ADF2: 240.0
FS[08:06] Navigation Mode: NAV
FS[08:06] Engine 1: Started
FS[08:06] Engine 2: Started
FS[08:06] Flaps: Position 1
FS[08:06] Parking Brake: Released
FS[08:06] NOTE: Taxi started
FS[08:06] NOTE: ----- TAKE OFF -----
FS[08:06] GS: 36 knots
FS[08:06] TAS: 43 knots
FS[08:06] IAS: 43 knots
FS[08:06] VS: 13 fpm
FS[08:06] FOB: 449 lbs
FS[08:06] Heading: 3°
FS[08:06] Pitch: 14°
FS[08:06] Bank: 0°
FS[08:06] Aircraft Weight: 4678.98 lbs
FS[08:06] Nearest Airport: PAMH
FS[08:06] Distance: 0.26 miles
FS[08:06] Runway: ???
FS[08:06] Ground Surface: Gravel
FS[08:06] Ground Condition: Normal
FS[08:06] NOTE: Weather Report
FS[08:06] Wind Heading: 339°
FS[08:06] Wind Speed: 10 knots
FS[08:06] OAT: 9° C
FS[08:06] TAT: 9° C
FS[08:06] Precipitation: None
FS[08:06] Dew Point: 0° C
FS[08:06] Visibility: 25 miles
FS[08:06] METAR: PAMH 011756Z AUTO 22007KT 10SM -RA OVC006 09/08 A2979 RMK AO2 SLP845 P0003 60029 T00940083 10100 20089 53004
FS[08:07] NOTE: Climb started
FS[08:07] Landing Gear: Retracted
FS[08:07] GS: 97 knots
FS[08:07] TAS: 106 knots
FS[08:07] IAS: 107 knots
FS[08:07] VS: 1067 fpm
FS[08:07] AGL: 56 ft
FS[08:07] AMSL: 731 ft
FS[08:07] View Mode: Virtual Cockpit
FS[08:07] Flaps: Position 0
FS[08:07] GS: 95 knots
FS[08:07] TAS: 105 knots
FS[08:07] IAS: 105 knots
FS[08:07] VS: 2383 fpm
FS[08:11] COM1: 133.10
FS[08:21] Turbulence: Moderate
FS[08:22] COM1: 122.90
FS[08:22] Recovery: Flight Saved
FS[08:25] Turbulence: None
FS[08:26] Flaps: Position 1
FS[08:26] GS: 118 knots
FS[08:26] TAS: 108 knots
FS[08:26] IAS: 106 knots
FS[08:26] VS: -166 fpm
FS[08:26] Flaps: Position 2
FS[08:26] GS: 116 knots
FS[08:26] TAS: 106 knots
FS[08:26] IAS: 104 knots
FS[08:26] VS: -167 fpm
FS[08:26] Landing Gear: Extended
FS[08:26] GS: 97 knots
FS[08:26] TAS: 89 knots
FS[08:26] IAS: 87 knots
FS[08:26] VS: -1201 fpm
FS[08:26] AGL: 705 ft
FS[08:26] AMSL: 2440 ft
FS[08:26] Flaps: Position 3
FS[08:26] GS: 91 knots
FS[08:26] TAS: 83 knots
FS[08:26] IAS: 82 knots
FS[08:26] VS: -1173 fpm
FS[08:27] NOTE: ----- LANDED -----
FS[08:27] Landing Rate: -207.62 fpm
FS[08:27] GS: 73 knots
FS[08:27] TAS: 64 knots
FS[08:27] IAS: 63 knots
FS[08:27] VS: -194 fpm
FS[08:27] FOB: 318 lbs
FS[08:27] Heading: 157°
FS[08:27] Pitch: 5°
FS[08:27] Bank: 0°
FS[08:27] Aircraft Weight: 4548.68 lbs
FS[08:27] Nearest Airport: Z90
FS[08:27] Distance: 0.05 miles
FS[08:27] Runway: 15 - Z90
FS[08:27] Ground Surface: Grass
FS[08:27] Ground Condition: Normal
FS[08:27] NOTE: Weather Report
FS[08:27] Wind Heading: 338°
FS[08:27] Wind Speed: 10 knots
FS[08:27] OAT: 7° C
FS[08:27] TAT: 8° C
FS[08:27] Precipitation: None
FS[08:27] Dew Point: 0° C
FS[08:27] Visibility: 25 miles
FS[08:27] METAR: UMMG 011600Z 28003MPS 9999 FEW040 BKN200 21/11 Q1018 NOSIGUMMS 011730Z 35003MPS 310V010 CAVOK 21/13 Q1018 R88/CLRD// NOSIG
FS[08:27] View Mode: Virtual Cockpit
FS[08:27] NOTE: Taxi started
FS[08:28] Flaps: Position 2
FS[08:28] NOTE: Arrived
FS[08:28] Parking Brake: Engaged
FS[08:29] Parking Brake: Released
FS[08:30] Landing Gear: Retracted
FS[08:30] GS: 79 knots
FS[08:30] TAS: 93 knots
FS[08:30] IAS: 92 knots
FS[08:30] VS: 2176 fpm
FS[08:30] AGL: 95 ft
FS[08:30] AMSL: 1922 ft
FS[08:30] View Mode: Virtual Cockpit
FS[08:30] Flaps: Position 1
FS[08:30] GS: 73 knots
FS[08:30] TAS: 88 knots
FS[08:30] IAS: 87 knots
FS[08:30] VS: 2629 fpm
FS[08:31] COM1: 133.10
FS[08:32] Flaps: Position 0
FS[08:32] GS: 139 knots
FS[08:32] TAS: 144 knots
FS[08:32] IAS: 137 knots
FS[08:32] VS: 116 fpm
FS[08:41] COM1: 122.90
FS[08:42] Recovery: Flight Saved
FS[08:43] Flaps: Position 1
FS[08:43] GS: 151 knots
FS[08:43] TAS: 144 knots
FS[08:43] IAS: 140 knots
FS[08:43] VS: -69 fpm
FS[08:43] Flaps: Position 2
FS[08:43] GS: 132 knots
FS[08:43] TAS: 124 knots
FS[08:43] IAS: 121 knots
FS[08:43] VS: 203 fpm
FS[08:43] Landing Gear: Extended
FS[08:43] GS: 101 knots
FS[08:43] TAS: 95 knots
FS[08:43] IAS: 93 knots
FS[08:43] VS: -656 fpm
FS[08:43] AGL: 1145 ft
FS[08:43] AMSL: 2785 ft
FS[08:44] Flaps: Position 3
FS[08:44] GS: 77 knots
FS[08:44] TAS: 88 knots
FS[08:44] IAS: 87 knots
FS[08:44] VS: -1142 fpm
FS[08:45] NOTE: ----- LANDED -----
FS[08:45] Landing Rate: -137.64 fpm
FS[08:45] GS: 48 knots
FS[08:45] TAS: 59 knots
FS[08:45] IAS: 58 knots
FS[08:45] VS: -136 fpm
FS[08:45] FOB: 224 lbs
FS[08:45] Heading: 332°
FS[08:45] Pitch: 6°
FS[08:45] Bank: 0°
FS[08:45] Aircraft Weight: 4454.44 lbs
FS[08:45] Nearest Airport: HRR
FS[08:45] Distance: 0.14 miles
FS[08:45] Runway: 33 - HRR
FS[08:45] Ground Surface: Asphalt
FS[08:45] Ground Condition: Normal
FS[08:45] NOTE: Weather Report
FS[08:45] Wind Heading: 338°
FS[08:45] Wind Speed: 10 knots
FS[08:45] OAT: 8° C
FS[08:45] TAT: 9° C
FS[08:45] Precipitation: None
FS[08:45] Dew Point: -1° C
FS[08:45] Visibility: 25 miles
FS[08:45] METAR: UMMG 011600Z 28003MPS 9999 FEW040 BKN200 21/11 Q1018 NOSIGUMMS 011730Z 35003MPS 310V010 CAVOK 21/13 Q1018 R88/CLRD// NOSIG
FS[08:45] View Mode: Virtual Cockpit
FS[08:45] Flaps: Position 2
FS[08:45] Flaps: Position 0
FS[08:46] Flaps: Position 1
FS[08:46] Parking Brake: Engaged
FS[08:47] Parking Brake: Released
FS[08:48] Landing Gear: Retracted
FS[08:48] GS: 104 knots
FS[08:48] TAS: 97 knots
FS[08:48] IAS: 96 knots
FS[08:48] VS: 1654 fpm
FS[08:48] AGL: 95 ft
FS[08:48] AMSL: 1387 ft
FS[08:48] View Mode: Virtual Cockpit
FS[08:49] Flaps: Position 0
FS[08:49] GS: 132 knots
FS[08:49] TAS: 123 knots
FS[08:49] IAS: 119 knots
FS[08:49] VS: 0 fpm
FS[08:52] Flaps: Position 1
FS[08:52] GS: 128 knots
FS[08:52] TAS: 120 knots
FS[08:52] IAS: 117 knots
FS[08:52] VS: 482 fpm
FS[08:52] Flaps: Position 2
FS[08:52] GS: 122 knots
FS[08:52] TAS: 113 knots
FS[08:52] IAS: 110 knots
FS[08:52] VS: 572 fpm
FS[08:52] Landing Gear: Extended
FS[08:52] GS: 106 knots
FS[08:52] TAS: 99 knots
FS[08:52] IAS: 96 knots
FS[08:52] VS: -183 fpm
FS[08:52] AGL: 1178 ft
FS[08:52] AMSL: 3005 ft
FS[08:54] NOTE: ----- LANDED -----
FS[08:54] Landing Rate: -226.84 fpm
FS[08:54] GS: 75 knots
FS[08:54] TAS: 68 knots
FS[08:54] IAS: 67 knots
FS[08:54] VS: -225 fpm
FS[08:54] FOB: 193 lbs
FS[08:54] Heading: 134°
FS[08:54] Pitch: 6°
FS[08:54] Bank: -1°
FS[08:54] Aircraft Weight: 4423.22 lbs
FS[08:54] Nearest Airport: AK06
FS[08:54] Distance: 0.06 miles
FS[08:54] Runway: 12 - AK06
FS[08:54] Ground Surface: Gravel
FS[08:54] Ground Condition: Normal
FS[08:54] NOTE: Weather Report
FS[08:54] Wind Heading: 338°
FS[08:54] Wind Speed: 10 knots
FS[08:54] OAT: 7° C
FS[08:54] TAT: 8° C
FS[08:54] Precipitation: None
FS[08:54] Dew Point: -2° C
FS[08:54] Visibility: 25 miles
FS[08:54] METAR: UMMG 011600Z 28003MPS 9999 FEW040 BKN200 21/11 Q1018 NOSIGUMMS 011730Z 35003MPS 310V010 CAVOK 21/13 Q1018 R88/CLRD// NOSIG
FS[08:54] View Mode: Virtual Cockpit
FS[08:54] Flaps: Position 1
FS[08:54] Flaps: Position 0
FS[08:55] Parking Brake: Engaged
FS[08:56] Parking Brake: Released
FS[08:56] Landing Gear: Retracted
FS[08:56] GS: 91 knots
FS[08:56] TAS: 103 knots
FS[08:56] IAS: 101 knots
FS[08:56] VS: 2283 fpm
FS[08:56] AGL: 95 ft
FS[08:56] AMSL: 2093 ft
FS[08:56] View Mode: Virtual Cockpit
FS[09:06] Flaps: Position 1
FS[09:06] GS: 110 knots
FS[09:06] TAS: 107 knots
FS[09:06] IAS: 104 knots
FS[09:06] VS: 305 fpm
FS[09:06] Landing Gear: Extended
FS[09:06] GS: 89 knots
FS[09:06] TAS: 87 knots
FS[09:06] IAS: 84 knots
FS[09:06] VS: -338 fpm
FS[09:06] AGL: 872 ft
FS[09:06] AMSL: 3175 ft
FS[09:07] Flaps: Position 2
FS[09:07] GS: 108 knots
FS[09:07] TAS: 100 knots
FS[09:07] IAS: 97 knots
FS[09:07] VS: -239 fpm
FS[09:08] Flaps: Position 3
FS[09:08] GS: 85 knots
FS[09:08] TAS: 94 knots
FS[09:08] IAS: 91 knots
FS[09:08] VS: -690 fpm
FS[09:08] NOTE: ----- LANDED -----
FS[09:08] Landing Rate: -165.32 fpm
FS[09:08] GS: 48 knots
FS[09:08] TAS: 53 knots
FS[09:08] IAS: 52 knots
FS[09:08] VS: -163 fpm
FS[09:08] FOB: 144 lbs
FS[09:08] Heading: 44°
FS[09:08] Pitch: 10°
FS[09:08] Bank: 1°
FS[09:08] Aircraft Weight: 4374.59 lbs
FS[09:08] Nearest Airport: UMM
FS[09:08] Distance: 0.21 miles
FS[09:08] Runway: 3 - UMM
FS[09:08] Ground Surface: Gravel
FS[09:08] Ground Condition: Normal
FS[09:08] NOTE: Weather Report
FS[09:08] Wind Heading: 338°
FS[09:08] Wind Speed: 10 knots
FS[09:08] OAT: 6° C
FS[09:08] TAT: 7° C
FS[09:08] Precipitation: None
FS[09:08] Dew Point: -3° C
FS[09:08] Visibility: 25 miles
FS[09:08] METAR: UMMG 011600Z 28003MPS 9999 FEW040 BKN200 21/11 Q1018 NOSIGUMMS 011730Z 35003MPS 310V010 CAVOK 21/13 Q1018 R88/CLRD// NOSIG
FS[09:08] View Mode: Virtual Cockpit
FS[09:09] Flaps: Position 1
FS[09:09] Flaps: Position 0
FS[09:09] Parking Brake: Engaged
FS[09:10] Engine 1: Stopped
FS[09:10] Engine 2: Stopped
FS[09:10] Gate: 2 - UMM
FS[09:10] NOTE: Flight Completed
FS[09:10] FS Aircraft: Cessna T-50 Bobcat Milviz
FS[09:10] FS Model: T50
FS[09:10] FS Type: T50
FS[09:10] FOB: 143 lbs
FS[09:10] Fuel Used: 307 lbs
FS[09:10] Flight Time: 01:03:24
FS[09:10] Flight Time (Dawn): 00:00:00
FS[09:10] Flight Time (Day): 01:03:24
FS[09:10] Flight Time (Dusk): 00:00:00
FS[09:10] Flight Time (Night): 00:00:00
FS[09:10] Total Landings: 4
FS[09:10] MaxSim Rate: 0x
FS[09:10] Cigar Box - 1.1.4.0
FS[09:10] ----- Flight Closed -----

Route Map